Weather reports worldwide

Advertisment
Sedona AZ, United States of America (2072454): temperature & dewpoint: 20.10.2020 13:00:00 - 26.10.2020 13:00:00 (MST)Sedona AZ, United States of America (2072454): wind speed: 20.10.2020 13:00:00 - 26.10.2020 13:00:00 (MST)Sedona AZ, United States of America (2072454): wind direction: 20.10.2020 13:00:00 - 26.10.2020 13:00:00 (MST)Sedona AZ, United States of America (2072454): visibility: 20.10.2020 13:00:00 - 26.10.2020 13:00:00 (MST)
Date & Time tt [°C] td [°C] ff [km/h] ff [kn] dd vv [km]
26.10.2020 13:00:00 8,0 -8,0 26 14 NE 16
26.10.2020 12:00:00 6,0 -7,0 34 18 NE 16
26.10.2020 11:00:00 6,0 -7,0 29 16 ENE 16
26.10.2020 10:00:00 6,0 -6,0 31 17 NE 16
26.10.2020 09:00:00 5,0 -6,0 26 14 NE 16
26.10.2020 08:00:00 6,0 -3,0 22 12 NE 16
26.10.2020 07:00:00 5,0 -7,0 11 6 S 16
26.10.2020 06:00:00 6,0 -8,0 13 7 W 16
26.10.2020 05:00:00 7,0 -4,0 11 6 NNE 16
26.10.2020 04:00:00 7,0 -5,0 11 6 N 16
26.10.2020 03:00:00 9,0 -7,0 9 5 N 16
26.10.2020 02:00:00 9,0 -2,0 13 7 N 16
26.10.2020 01:00:00 10,0 1,0 16 9 N 16
26.10.2020 00:00:00 13,0 3,0 9 5 SSW 16
25.10.2020 23:00:00 13,0 2,0 9 5 SSW 16
25.10.2020 22:00:00 15,0 3,0 9 5 SW 16
25.10.2020 21:00:00 15,0 3,0 15 8 W 16
25.10.2020 20:00:00 16,0 3,0 26 14 SSW 16
25.10.2020 19:00:00 16,0 5,0 26 14 SSE 16
25.10.2020 18:00:00 17,0 7,0 28 15 SSE 16
25.10.2020 17:00:00 18,0 8,0 29 16 SSE 16
25.10.2020 16:00:00 18,0 10,0 29 16 S 16
25.10.2020 15:00:00 20,0 7,0 41 22 S 16
25.10.2020 14:00:00 20,0 7,0 39 21 S 16
25.10.2020 13:00:00 23,0 6,0 39 21 S 16
25.10.2020 12:00:00 22,0 5,0 37 20 SSE 16
25.10.2020 11:00:00 21,0 6,0 28 15 S 16
25.10.2020 10:00:00 20,0 7,0 28 15 S 16
25.10.2020 09:00:00 17,0 8,0 21 11 SSE 16
25.10.2020 08:00:00 16,0 8,0 15 8 SSE 16
25.10.2020 07:00:00 15,0 7,0 11 6 S 16
25.10.2020 06:00:00 15,0 6,0 16 9 SE 16
25.10.2020 05:00:00 15,0 6,0 8 4 S 16
25.10.2020 04:00:00 16,0 5,0 8 4 S 16
25.10.2020 03:00:00 16,0 3,0 16 9 SSE 16
25.10.2020 02:00:00 16,0 2,0 13 7 S 16
25.10.2020 01:00:00 16,0 1,0 8 4 S 16
25.10.2020 00:00:00 17,0 1,0 13 7 SSE 16
24.10.2020 23:00:00 17,0 2,0 16 9 SSE 16
24.10.2020 22:00:00 17,0 3,0 9 5 S 16
24.10.2020 21:00:00 18,0 3,0 9 5 S 16
24.10.2020 20:00:00 18,0 5,0 15 8 S 16
24.10.2020 19:00:00 19,0 5,0 9 5 SSE 16
24.10.2020 18:00:00 20,0 5,0 18 10 SE 16
24.10.2020 17:00:00 21,0 2,0 13 7 S 16
24.10.2020 16:00:00 22,0 2,0 21 11 S 16
24.10.2020 15:00:00 23,0 3,0 16 9 S 16
24.10.2020 14:00:00 23,0 4,0 8 4 SSW 16
24.10.2020 13:00:00 25,0 5,0 13 7 WSW 16
24.10.2020 12:00:00 25,0 6,0 9 5 SSW 16
24.10.2020 11:00:00 24,0 7,0 15 8 SSE 16
24.10.2020 10:00:00 23,0 7,0 21 11 SE 16
24.10.2020 09:00:00 20,0 5,0 5 3 SE 16
24.10.2020 08:00:00 17,0 5,0 0 0 N 16
24.10.2020 07:00:00 15,0 5,0 0 0 N 16
24.10.2020 06:00:00 15,0 5,0 0 0 N 16
24.10.2020 05:00:00 16,0 5,0 0 0 N 16
24.10.2020 04:00:00 15,0 5,0 0 0 N 16
24.10.2020 03:00:00 15,0 5,0 0 0 N 16
24.10.2020 02:00:00 16,0 5,0 0 0 N 16
24.10.2020 01:00:00 16,0 5,0 5 3 ESE 16
24.10.2020 00:00:00 17,0 5,0 5 3 ESE 16
23.10.2020 23:00:00 17,0 5,0 8 4 ESE 16
23.10.2020 22:00:00 18,0 5,0 9 5 SE 16
23.10.2020 21:00:00 18,0 5,0 9 5 SE 16
23.10.2020 20:00:00 19,0 5,0 8 4 SE 16
23.10.2020 19:00:00 20,0 4,0 9 5 S 16
23.10.2020 18:00:00 22,0 3,0 15 8 S 16
23.10.2020 17:00:00 23,0 4,0 21 11 SSW 16
23.10.2020 16:00:00 25,0 3,0 16 9 SSW 16
23.10.2020 15:00:00 26,0 2,0 15 8 SSW 16
23.10.2020 14:00:00 27,0 2,0 11 6 SSW 16
23.10.2020 13:00:00 26,0 3,0 15 8 S 16
23.10.2020 12:00:00 25,0 4,0 18 10 S 16
23.10.2020 11:00:00 25,0 6,0 16 9 SE 16
23.10.2020 10:00:00 22,0 4,0 9 5 SSE 16
23.10.2020 09:00:00 21,0 3,0 8 4 E 16
23.10.2020 08:00:00 16,0 2,0 9 5 NNE 16
23.10.2020 07:00:00 14,0 2,0 13 7 NNE 16
23.10.2020 06:00:00 14,0 2,0 18 10 NNE 16
23.10.2020 05:00:00 15,0 2,0 21 11 NNE 16
23.10.2020 04:00:00 15,0 2,0 22 12 NNE 16
23.10.2020 03:00:00 15,0 2,0 16 9 NNE 16
23.10.2020 02:00:00 15,0 1,0 21 11 NNE 16
23.10.2020 01:00:00 16,0 1,0 9 5 NNE 16
23.10.2020 00:00:00 16,0 1,0 13 7 NNE 16
22.10.2020 23:00:00 18,0 2,0 0 0 N 16
22.10.2020 22:00:00 18,0 2,0 0 0 N 16
22.10.2020 21:00:00 18,0 1,0 11 6 SE 16
22.10.2020 20:00:00 20,0 1,0 9 5 SSE 16
22.10.2020 19:00:00 21,0 1,0 11 6 S 16
22.10.2020 18:00:00 22,0 1,0 15 8 SSW 16
22.10.2020 17:00:00 24,0 0,0 21 11 S 16
22.10.2020 16:00:00 26,0 0,0 15 8 S 16
22.10.2020 15:00:00 26,0 0,0 13 7 S 16
22.10.2020 14:00:00 27,0 0,0 11 6 SSE 11
22.10.2020 13:00:00 27,0 0,0 21 11 S 16
22.10.2020 12:00:00 27,0 -1,0 18 10 SE 16
22.10.2020 11:00:00 25,0 -2,0 8 4 S 16
22.10.2020 10:00:00 22,0 -2,0 5 3 SE 16
22.10.2020 09:00:00 20,0 -2,0 0 0 N 16
22.10.2020 08:00:00 16,0 -3,0 5 3 NE 16
22.10.2020 07:00:00 14,0 -4,0 9 5 NNE 16
22.10.2020 06:00:00 13,0 -4,0 11 6 NNE 16
22.10.2020 05:00:00 14,0 -4,0 13 7 NNE 16
22.10.2020 04:00:00 15,0 -4,0 11 6 N 16
22.10.2020 03:00:00 15,0 -4,0 13 7 NNE 16
22.10.2020 02:00:00 16,0 -4,0 9 5 NNE 16
22.10.2020 01:00:00 16,0 -4,0 9 5 NNE 16
22.10.2020 00:00:00 17,0 -5,0 11 6 NNE 16
21.10.2020 23:00:00 18,0 -5,0 9 5 NNE 16
21.10.2020 22:00:00 19,0 -5,0 9 5 N 16
21.10.2020 21:00:00 20,0 -5,0 0 0 N 16
21.10.2020 20:00:00 21,0 -5,0 5 3 SE 16
21.10.2020 19:00:00 22,0 -5,0 11 6 SSW 16
21.10.2020 18:00:00 23,0 -6,0 11 6 S 16
21.10.2020 17:00:00 25,0 -5,0 15 8 S 16
21.10.2020 16:00:00 27,0 -5,0 13 7 S 16
21.10.2020 15:00:00 27,0 -5,0 5 3 S 16
21.10.2020 14:00:00 27,0 -5,0 0 0 N 16
21.10.2020 13:00:00 26,0 -4,0 8 4 S 16
21.10.2020 12:00:00 26,0 -4,0 5 3 WSW 16
21.10.2020 11:00:00 25,0 -5,0 0 0 N 16
21.10.2020 10:00:00 23,0 -5,0 8 4 SE 16
21.10.2020 09:00:00 20,0 -5,0 8 4 E 16
21.10.2020 08:00:00 18,0 -7,0 13 7 NE 16
21.10.2020 07:00:00 15,0 -7,0 18 10 NNE 16
21.10.2020 06:00:00 15,0 -7,0 16 9 NE 16
21.10.2020 05:00:00 16,0 -7,0 21 11 NNE 16
21.10.2020 04:00:00 16,0 -7,0 18 10 NNE 16
21.10.2020 03:00:00 15,0 -6,0 18 10 NNE 16
21.10.2020 02:00:00 16,0 -6,0 16 9 NNE 16
21.10.2020 01:00:00 16,0 -6,0 16 9 NNE 16
21.10.2020 00:00:00 17,0 -6,0 13 7 NNE 16
20.10.2020 23:00:00 20,0 -5,0 0 0 N 16
20.10.2020 22:00:00 20,0 -6,0 5 3 NNE 16
20.10.2020 21:00:00 21,0 -5,0 11 6 NE 16
20.10.2020 20:00:00 22,0 -5,0 0 0 N 16
20.10.2020 19:00:00 23,0 -5,0 9 5 SSE 16
20.10.2020 18:00:00 25,0 -7,0 13 7 S 16
20.10.2020 17:00:00 27,0 -10,0 9 5 SW 16
20.10.2020 16:00:00 28,0 -11,0 9 5 SSW 16
20.10.2020 15:00:00 28,0 -8,0 8 4 WSW 16
20.10.2020 14:00:00 30,0 -7,0 15 8 S 16
20.10.2020 13:00:00 28,0 -7,0 11 6 SSW 16

tt = temperature
td = dewpoint
ff = wind speed
dd = wind direction
vv = visibility

Next stations